Time;durP1;ratioP1;P1;durP2;ratioP2;P2;SDS_P1;SDS_P2;PMS_P1;PMS_P2;Temp;Humidity;BMP_temperature;BMP_pressure;BME280_temperature;BME280_humidity;BME280_pressure;Samples;Min_cycle;Max_cycle;Signal;HPM_P1;HPM_P2
2023/04/13 00:00:38;;;;;;;2.75;0.60;;;;;;;7.21;65.72;98534.84;5055371;28;20398;-59
2023/04/13 00:03:05;;;;;;;3.67;0.70;;;;;;;7.21;65.66;98512.69;5061131;28;20051;-59
2023/04/13 00:05:33;;;;;;;1.42;0.60;;;;;;;7.35;65.79;98508.81;5058774;28;20064;-59
2023/04/13 00:08:02;;;;;;;1.80;0.80;;;;;;;7.31;65.61;98515.03;5066943;28;20052;-59
2023/04/13 00:10:30;;;;;;;1.88;0.80;;;;;;;7.30;64.61;98513.41;5055793;28;20060;-59
2023/04/13 00:13:00;;;;;;;3.10;0.70;;;;;;;7.36;64.79;98496.59;5064656;28;20049;-59
2023/04/13 00:15:27;;;;;;;1.73;0.77;;;;;;;7.42;63.64;98498.00;5067037;28;20044;-59
2023/04/13 00:17:55;;;;;;;2.45;0.70;;;;;;;7.42;63.64;98495.22;5052561;28;20407;-59
2023/04/13 00:20:22;;;;;;;1.90;0.90;;;;;;;7.41;64.04;98488.06;5051563;28;20049;-59
2023/04/13 00:22:50;;;;;;;1.88;0.70;;;;;;;7.42;63.86;98484.94;5051619;28;20056;-59
2023/04/13 00:25:19;;;;;;;1.38;0.77;;;;;;;7.42;63.77;98473.06;5061193;28;20060;-59
2023/04/13 00:27:48;;;;;;;4.03;0.77;;;;;;;7.45;63.71;98494.53;5062396;28;20495;-59
2023/04/13 00:30:18;;;;;;;2.67;0.90;;;;;;;7.53;63.96;98465.94;5066188;28;20053;-59
2023/04/13 00:32:46;;;;;;;2.95;1.02;;;;;;;7.54;63.07;98470.34;5063222;28;20056;-59
2023/04/13 00:35:17;;;;;;;3.42;0.70;;;;;;;7.57;62.83;98463.28;5061625;28;20053;-59
2023/04/13 00:37:45;;;;;;;3.65;0.95;;;;;;;7.57;63.82;98463.28;5055886;28;20052;-59
2023/04/13 00:40:14;;;;;;;1.70;0.70;;;;;;;7.51;63.06;98462.69;5055161;28;20061;-59
2023/04/13 00:42:43;;;;;;;1.60;0.80;;;;;;;7.64;63.51;98464.34;5051436;28;20056;-59
2023/04/13 00:45:12;;;;;;;2.75;1.10;;;;;;;7.73;62.74;98472.56;5060144;28;20525;-59
2023/04/13 00:47:45;;;;;;;1.58;0.82;;;;;;;7.63;62.34;98468.25;5051139;28;20057;-59
2023/04/13 00:50:13;;;;;;;2.47;0.77;;;;;;;7.79;62.13;98453.72;5053549;28;20391;-59
2023/04/13 00:52:43;;;;;;;2.90;0.93;;;;;;;7.78;62.84;98464.00;5066107;28;20048;-59
2023/04/13 00:55:12;;;;;;;3.83;1.02;;;;;;;7.78;62.43;98460.44;5057939;28;20049;-59
2023/04/13 00:57:40;;;;;;;2.75;0.82;;;;;;;7.87;62.61;98464.72;5061410;28;20412;-59
2023/04/13 01:00:09;;;;;;;2.15;1.20;;;;;;;7.96;62.52;98461.00;5063607;28;20045;-59
2023/04/13 01:02:40;;;;;;;1.98;0.77;;;;;;;8.01;62.49;98447.72;5051869;28;20652;-60
2023/04/13 01:05:11;;;;;;;1.67;0.70;;;;;;;8.11;62.42;98460.31;5067092;28;20060;-59
2023/04/13 01:07:46;;;;;;;1.63;0.70;;;;;;;8.24;61.17;98450.03;5068975;28;20487;-59
2023/04/13 01:10:19;;;;;;;2.00;0.80;;;;;;;8.18;61.41;98456.97;5061425;28;20057;-61
2023/04/13 01:12:58;;;;;;;2.30;1.23;;;;;;;8.08;61.64;98447.97;5060490;28;20075;-62
2023/04/13 01:15:30;;;;;;;3.85;0.90;;;;;;;8.19;61.53;98455.78;5056429;28;20407;-62
2023/04/13 01:18:03;;;;;;;1.95;0.82;;;;;;;8.22;62.63;98435.69;5058280;28;20053;-62
2023/04/13 01:20:34;;;;;;;1.90;0.70;;;;;;;8.12;61.24;98445.28;5057602;28;20470;-62
2023/04/13 01:23:08;;;;;;;2.08;0.80;;;;;;;8.17;61.29;98442.28;5063198;28;20411;-62
2023/04/13 01:25:40;;;;;;;3.13;0.88;;;;;;;8.24;61.55;98455.56;5056478;28;20492;-61
2023/04/13 01:28:12;;;;;;;3.17;0.90;;;;;;;8.14;63.39;98437.44;5058297;28;20051;-61
2023/04/13 01:30:41;;;;;;;2.13;0.77;;;;;;;8.03;64.37;98441.84;5063962;28;20056;-62
2023/04/13 01:33:11;;;;;;;3.17;0.80;;;;;;;8.14;63.60;98438.22;5069434;28;20049;-62
2023/04/13 01:35:39;;;;;;;1.30;0.60;;;;;;;8.09;64.97;98434.91;5059804;28;20044;-62
2023/04/13 01:38:07;;;;;;;2.47;0.73;;;;;;;8.05;64.25;98418.16;5064696;28;20396;-61
2023/04/13 01:40:39;;;;;;;2.30;1.02;;;;;;;7.90;65.35;98430.75;5062489;28;20052;-61
2023/04/13 01:43:07;;;;;;;2.67;0.98;;;;;;;8.02;65.88;98429.94;5060793;28;20056;-62
2023/04/13 01:45:44;;;;;;;5.03;1.10;;;;;;;7.84;67.96;98428.56;5067625;28;20049;-62
2023/04/13 01:48:17;;;;;;;3.33;0.95;;;;;;;7.70;69.01;98435.22;5067862;28;20049;-62
2023/04/13 01:50:49;;;;;;;3.85;1.02;;;;;;;7.75;68.77;98437.00;5061893;28;20057;-63
2023/04/13 01:53:21;;;;;;;3.17;0.90;;;;;;;7.69;69.92;98428.09;5056883;28;20045;-62
2023/04/13 01:55:49;;;;;;;2.75;0.65;;;;;;;7.61;68.98;98434.53;5062090;28;20040;-62
2023/04/13 01:58:19;;;;;;;2.08;0.90;;;;;;;7.54;68.49;98420.47;5064506;28;20059;-62
2023/04/13 02:00:48;;;;;;;1.80;0.75;;;;;;;7.69;68.33;98422.53;5059677;28;20062;-62
2023/04/13 02:03:16;;;;;;;3.05;0.82;;;;;;;7.75;68.37;98416.75;5054361;28;20498;-62
2023/04/13 02:05:47;;;;;;;5.40;1.30;;;;;;;7.63;68.65;98420.34;5054454;28;20048;-62
2023/04/13 02:08:14;;;;;;;3.70;0.90;;;;;;;7.71;67.95;98436.88;5062735;28;20383;-62
2023/04/13 02:10:42;;;;;;;2.17;0.75;;;;;;;7.77;67.13;98433.84;5056630;28;20057;-62
2023/04/13 02:13:09;;;;;;;2.17;0.98;;;;;;;7.71;67.39;98428.56;5056314;28;20498;-62
2023/04/13 02:15:38;;;;;;;1.70;0.80;;;;;;;7.80;66.48;98419.31;5067670;28;20052;-62
2023/04/13 02:18:10;;;;;;;3.83;0.70;;;;;;;7.74;66.53;98440.91;5070261;28;20083;-62
2023/04/13 02:20:45;;;;;;;3.60;0.80;;;;;;;7.87;66.74;98433.41;5061816;28;20061;-62
2023/04/13 02:23:14;;;;;;;2.17;0.80;;;;;;;7.91;67.26;98434.31;5064722;28;20063;-62
2023/04/13 02:25:42;;;;;;;2.42;0.65;;;;;;;7.94;67.13;98428.09;5055440;28;20053;-62
2023/04/13 02:28:10;;;;;;;3.05;1.02;;;;;;;7.90;66.85;98427.19;5064899;28;20049;-62
2023/04/13 02:30:37;;;;;;;2.67;0.90;;;;;;;7.83;66.98;98426.94;5057946;28;20418;-62
2023/04/13 02:33:08;;;;;;;2.47;0.70;;;;;;;7.98;66.18;98417.94;5061262;28;20053;-62
2023/04/13 02:35:37;;;;;;;1.75;0.93;;;;;;;7.96;65.22;98431.34;5061252;28;20053;-62
2023/04/13 02:38:05;;;;;;;8.68;0.88;;;;;;;8.10;65.24;98426.22;5053644;28;20478;-62
2023/04/13 02:40:35;;;;;;;2.08;0.90;;;;;;;8.22;63.85;98430.16;5058280;28;20053;-62
2023/04/13 02:43:03;;;;;;;3.60;0.60;;;;;;;8.24;63.96;98422.28;5053314;28;20076;-62
2023/04/13 02:45:33;;;;;;;1.83;0.60;;;;;;;8.22;63.19;98424.59;5062275;28;20048;-62
2023/04/13 02:48:00;;;;;;;1.55;0.70;;;;;;;8.28;63.46;98414.88;5058012;28;20063;-62
2023/04/13 02:50:29;;;;;;;3.42;0.70;;;;;;;8.37;62.81;98417.53;5056593;28;20049;-62
2023/04/13 02:52:56;;;;;;;2.38;0.73;;;;;;;8.32;62.27;98435.22;5061540;28;20545;-62
2023/04/13 02:55:23;;;;;;;1.35;0.70;;;;;;;8.39;61.15;98415.19;5057588;28;20052;-62
2023/04/13 02:57:51;;;;;;;1.60;0.60;;;;;;;8.39;61.83;98416.00;5063110;28;20053;-62
2023/04/13 03:00:19;;;;;;;1.45;0.50;;;;;;;8.50;61.99;98405.25;5060145;28;20074;-59
2023/04/13 03:02:46;;;;;;;2.10;0.70;;;;;;;8.50;60.81;98413.56;5060205;28;20059;-59
2023/04/13 03:05:13;;;;;;;2.05;0.65;;;;;;;8.61;60.32;98405.56;5056050;28;20059;-59
2023/04/13 03:07:44;;;;;;;5.28;1.10;;;;;;;8.52;61.19;98406.53;5061776;28;20045;-59
2023/04/13 03:10:11;;;;;;;2.10;0.70;;;;;;;8.58;60.63;98403.50;5061070;28;20053;-59
2023/04/13 03:12:38;;;;;;;2.28;0.80;;;;;;;8.62;61.15;98419.09;5063221;28;20055;-59
2023/04/13 03:15:09;;;;;;;4.53;0.93;;;;;;;8.46;62.57;98449.56;5065085;28;20052;-60
2023/04/13 03:17:40;;;;;;;1.70;0.60;;;;;;;8.57;61.57;98432.41;5055464;28;20483;-59
2023/04/13 03:20:11;;;;;;;2.28;0.88;;;;;;;8.46;61.67;98430.13;5061926;28;20049;-59
2023/04/13 03:22:38;;;;;;;2.65;0.82;;;;;;;8.51;62.69;98434.63;5055989;28;20049;-60
2023/04/13 03:25:08;;;;;;;2.45;0.73;;;;;;;8.59;61.70;98428.13;5064317;28;20053;-60
2023/04/13 03:27:35;;;;;;;;;;;;;;;8.40;62.04;98434.28;5068785;28;20418;-59
2023/04/13 03:30:03;;;;;;;2.13;0.73;;;;;;;8.42;63.02;98440.31;5055681;28;19921;-59
2023/04/13 03:32:31;;;;;;;2.08;0.70;;;;;;;8.29;63.85;98433.13;5061686;28;20045;-60
2023/04/13 03:34:58;;;;;;;1.80;0.98;;;;;;;8.46;63.42;98430.13;5056679;28;20364;-59
2023/04/13 03:37:28;;;;;;;1.92;0.88;;;;;;;8.40;63.81;98430.69;5060890;28;20045;-60
2023/04/13 03:39:58;;;;;;;4.03;1.00;;;;;;;8.36;64.95;98444.47;5061098;28;20056;-59
2023/04/13 03:42:27;;;;;;;2.50;0.70;;;;;;;8.30;64.66;98434.75;5072086;28;20048;-59
2023/04/13 03:44:54;;;;;;;2.90;0.88;;;;;;;8.29;65.05;98456.16;5060601;28;20481;-59
2023/04/13 03:47:21;;;;;;;1.63;0.52;;;;;;;8.09;67.18;98437.69;5051402;28;20061;-59
2023/04/13 03:49:48;;;;;;;3.53;0.80;;;;;;;7.98;67.44;98433.72;5053724;28;20060;-61
2023/04/13 03:52:16;;;;;;;4.18;1.00;;;;;;;7.98;67.92;98444.81;5058716;28;20419;-62
2023/04/13 03:54:43;;;;;;;4.38;0.68;;;;;;;8.02;67.88;98452.13;5057494;28;20426;-62
2023/04/13 03:57:10;;;;;;;3.25;0.90;;;;;;;8.00;67.39;98445.28;5056010;28;20067;-62
2023/04/13 03:59:39;;;;;;;2.35;0.60;;;;;;;7.98;68.79;98444.81;5061877;28;20048;-61
2023/04/13 04:02:06;;;;;;;1.98;0.80;;;;;;;8.00;67.92;98446.13;5051855;28;20354;-62
2023/04/13 04:04:34;;;;;;;1.73;0.70;;;;;;;7.94;68.54;98455.81;5064173;28;20056;-62
2023/04/13 04:07:01;;;;;;;1.75;0.60;;;;;;;8.00;68.44;98471.06;5071424;28;20049;-62
2023/04/13 04:09:28;;;;;;;1.48;0.70;;;;;;;8.01;68.11;98456.03;5053699;28;20060;-62
2023/04/13 04:11:56;;;;;;;2.25;0.65;;;;;;;8.09;67.24;98462.63;5057319;28;20063;-62
2023/04/13 04:14:23;;;;;;;3.20;0.77;;;;;;;8.09;67.01;98471.75;5066129;28;20053;-62
2023/04/13 04:16:52;;;;;;;2.38;0.65;;;;;;;8.14;66.60;98457.63;5060709;28;20048;-61
2023/04/13 04:19:19;;;;;;;1.90;0.60;;;;;;;8.20;66.78;98474.06;5056592;28;20052;-62
2023/04/13 04:21:46;;;;;;;2.45;1.17;;;;;;;8.24;66.85;98480.53;5059047;28;20442;-62
2023/04/13 04:24:19;;;;;;;2.35;0.63;;;;;;;8.22;67.39;98478.09;5065781;28;20061;-62
2023/04/13 04:26:49;;;;;;;1.55;0.80;;;;;;;8.24;67.07;98486.06;5058733;28;20479;-62
2023/04/13 04:29:16;;;;;;;1.20;0.50;;;;;;;8.18;66.78;98466.06;5068985;28;20517;-62
2023/04/13 04:31:43;;;;;;;2.83;0.93;;;;;;;8.07;67.25;98490.69;5064813;28;20060;-62
2023/04/13 04:34:12;;;;;;;2.85;0.80;;;;;;;8.17;66.37;98480.28;5061309;28;20064;-62
2023/04/13 04:36:44;;;;;;;2.75;0.90;;;;;;;8.20;66.45;98476.84;5049445;28;20044;-63
2023/04/13 04:39:13;;;;;;;2.00;0.80;;;;;;;8.18;66.40;98507.69;5052697;28;20060;-62
2023/04/13 04:41:42;;;;;;;2.40;0.70;;;;;;;8.25;65.56;98488.50;5052478;28;20060;-62
2023/04/13 04:44:10;;;;;;;3.20;0.75;;;;;;;8.29;66.07;98494.16;5053616;28;20499;-62
2023/04/13 04:46:40;;;;;;;1.80;0.70;;;;;;;8.36;67.14;98513.81;5051970;28;20049;-62
2023/04/13 04:49:07;;;;;;;;;;;;;;;8.28;66.69;98509.19;5055468;28;20063;-62
2023/04/13 04:51:36;;;;;;;2.70;0.98;;;;;;;8.39;67.10;98524.19;5059688;28;20002;-62
2023/04/13 04:54:04;;;;;;;2.17;0.90;;;;;;;8.31;67.93;98522.34;5060230;28;20052;-62
2023/04/13 04:56:31;;;;;;;2.35;0.95;;;;;;;8.24;67.99;98517.38;5061334;28;20406;-62
2023/04/13 04:58:58;;;;;;;2.17;0.90;;;;;;;8.29;68.11;98524.66;5050809;28;20061;-62
2023/04/13 05:01:26;;;;;;;2.45;0.70;;;;;;;8.22;67.16;98524.44;5050835;28;20440;-62
2023/04/13 05:03:53;;;;;;;2.13;0.93;;;;;;;8.27;68.92;98536.13;5064216;28;20055;-62
2023/04/13 05:06:21;;;;;;;3.40;0.73;;;;;;;8.29;69.43;98538.53;5065861;28;20052;-62
2023/04/13 05:08:50;;;;;;;2.30;0.80;;;;;;;8.18;70.01;98540.97;5056037;28;21196;-62
2023/04/13 05:11:19;;;;;;;1.38;0.75;;;;;;;8.09;71.21;98552.16;5062097;28;20059;-59
2023/04/13 05:13:46;;;;;;;2.08;0.75;;;;;;;8.03;71.00;98545.22;5063078;28;20052;-62
2023/04/13 05:16:13;;;;;;;1.65;0.70;;;;;;;7.89;72.64;98556.63;5067126;28;20057;-62
2023/04/13 05:18:44;;;;;;;2.35;0.90;;;;;;;8.03;72.54;98547.19;5053934;28;20141;-62
2023/04/13 05:21:12;;;;;;;4.07;0.80;;;;;;;8.08;72.96;98556.09;5055667;28;20057;-62
2023/04/13 05:23:40;;;;;;;2.42;0.80;;;;;;;8.11;71.86;98560.94;5055646;28;20048;-62
2023/04/13 05:26:10;;;;;;;2.97;1.10;;;;;;;8.16;72.41;98567.41;5054626;28;20049;-62
2023/04/13 05:28:38;;;;;;;3.03;1.00;;;;;;;7.98;72.69;98577.91;5059321;28;20045;-62
2023/04/13 05:31:07;;;;;;;2.03;0.95;;;;;;;8.10;72.27;98570.41;5063536;28;20056;-62
2023/04/13 05:33:35;;;;;;;2.50;0.98;;;;;;;8.07;72.62;98576.66;5065780;28;20053;-62
2023/04/13 05:36:02;;;;;;;2.67;0.82;;;;;;;8.18;72.50;98570.66;5057122;28;20052;-62
2023/04/13 05:38:30;;;;;;;2.25;1.05;;;;;;;8.29;72.45;98592.06;5051633;28;20045;-61
2023/04/13 05:40:58;;;;;;;2.75;1.10;;;;;;;8.12;71.74;98579.19;5066544;28;20071;-62
2023/04/13 05:43:26;;;;;;;1.88;1.00;;;;;;;8.36;70.84;98582.31;5061621;28;20398;-62
2023/04/13 05:45:54;;;;;;;2.55;1.10;;;;;;;8.34;71.64;98591.81;5054979;28;20399;-62
2023/04/13 05:48:21;;;;;;;2.83;1.10;;;;;;;8.54;71.27;98605.94;5069623;28;20044;-62
2023/04/13 05:50:49;;;;;;;2.35;1.10;;;;;;;8.56;70.72;98600.06;5068117;28;20048;-62
2023/04/13 05:53:16;;;;;;;1.95;1.05;;;;;;;8.56;70.06;98627.81;5067421;28;20068;-62
2023/04/13 05:55:43;;;;;;;2.47;0.93;;;;;;;8.50;69.54;98597.53;5068626;28;20419;-62
2023/04/13 05:58:11;;;;;;;3.33;1.15;;;;;;;8.82;70.07;98606.06;5067755;28;20040;-62
2023/04/13 06:00:40;;;;;;;3.60;1.52;;;;;;;8.99;68.30;98609.72;5070262;28;20083;-62
2023/04/13 06:03:07;;;;;;;2.38;0.95;;;;;;;8.97;67.83;98620.41;5057845;28;20055;-62
2023/04/13 06:05:35;;;;;;;2.15;1.10;;;;;;;9.04;67.31;98624.19;5057924;28;20057;-62
2023/04/13 06:08:02;;;;;;;2.35;1.10;;;;;;;9.09;68.16;98626.75;5069543;28;20056;-62
2023/04/13 06:10:30;;;;;;;3.33;1.23;;;;;;;9.00;68.78;98639.13;5056382;28;20071;-62
2023/04/13 06:12:57;;;;;;;3.63;1.27;;;;;;;9.06;68.27;98637.72;5064407;28;20052;-63
2023/04/13 06:15:24;;;;;;;2.67;1.63;;;;;;;9.04;67.48;98640.06;5061816;28;20048;-62
2023/04/13 06:17:53;;;;;;;2.55;1.10;;;;;;;9.02;67.10;98645.16;5072211;28;20056;-62
2023/04/13 06:20:21;;;;;;;2.93;1.13;;;;;;;9.06;66.25;98648.84;5057361;28;20053;-62
2023/04/13 06:22:49;;;;;;;3.30;1.30;;;;;;;9.37;66.90;98652.97;5056997;28;20493;-62
2023/04/13 06:25:16;;;;;;;2.97;1.23;;;;;;;9.52;65.51;98660.56;5058752;28;20056;-62
2023/04/13 06:27:43;;;;;;;1.58;1.10;;;;;;;9.55;64.67;98660.66;5062346;28;20056;-62
2023/04/13 06:30:11;;;;;;;2.80;1.30;;;;;;;9.63;64.25;98667.22;5069744;28;20044;-62
2023/04/13 06:32:39;;;;;;;2.40;1.15;;;;;;;9.71;64.22;98668.25;5062906;28;20052;-62
2023/04/13 06:35:09;;;;;;;3.03;1.30;;;;;;;9.81;63.27;98661.38;5063204;28;20051;-62
2023/04/13 06:37:36;;;;;;;2.22;1.40;;;;;;;9.72;62.71;98681.81;5059717;28;20059;-62
2023/04/13 06:40:11;;;;;;;3.25;1.40;;;;;;;9.72;63.60;98678.19;5060787;28;20478;-62
2023/04/13 06:42:39;;;;;;;2.47;1.20;;;;;;;9.65;63.83;98675.22;5070269;28;20071;-62
2023/04/13 06:45:08;;;;;;;2.63;1.30;;;;;;;9.76;62.67;98684.66;5057764;28;20045;-62
2023/04/13 06:47:36;;;;;;;1.75;1.30;;;;;;;9.65;62.00;98687.13;5053095;28;20408;-62
2023/04/13 06:50:05;;;;;;;2.28;1.35;;;;;;;9.81;61.82;98680.84;5063270;28;20052;-62
2023/04/13 06:52:34;;;;;;;2.88;1.60;;;;;;;10.03;61.05;98715.63;5057431;28;20056;-62
2023/04/13 06:55:02;;;;;;;1.55;1.15;;;;;;;10.31;61.02;98690.59;5064520;28;20376;-62
2023/04/13 06:57:30;;;;;;;1.73;1.30;;;;;;;10.33;61.20;98697.44;5052858;28;20049;-62
2023/04/13 07:00:00;;;;;;;2.05;1.20;;;;;;;10.40;60.70;98713.53;5052353;28;20399;-62
2023/04/13 07:02:28;;;;;;;3.42;1.45;;;;;;;10.58;59.93;98711.19;5056209;28;20053;-62
2023/04/13 07:04:55;;;;;;;1.98;1.40;;;;;;;10.85;59.82;98715.06;5055054;28;20056;-62
2023/04/13 07:07:22;;;;;;;2.60;1.30;;;;;;;10.63;58.71;98719.28;5055510;28;20506;-62
2023/04/13 07:09:51;;;;;;;2.25;1.42;;;;;;;10.80;59.10;98726.50;5065027;28;20052;-62
2023/04/13 07:12:19;;;;;;;3.38;1.20;;;;;;;10.81;58.68;98725.31;5061587;28;20515;-62
2023/04/13 07:14:47;;;;;;;2.60;1.50;;;;;;;10.87;58.40;98739.78;5060166;28;20053;-62
2023/04/13 07:17:14;;;;;;;6.65;1.90;;;;;;;10.66;57.60;98746.41;5055893;28;20167;-62
2023/04/13 07:19:45;;;;;;;2.95;1.52;;;;;;;10.53;58.38;98745.69;5068302;28;20567;-62
2023/04/13 07:22:12;;;;;;;3.20;1.70;;;;;;;10.74;58.13;98745.44;5054801;28;20075;-62
2023/04/13 07:24:40;;;;;;;3.10;1.73;;;;;;;10.50;58.39;98753.94;5062106;28;20060;-62
2023/04/13 07:27:08;;;;;;;1.88;1.40;;;;;;;10.49;58.31;98752.31;5056266;28;20052;-62
2023/04/13 07:29:36;;;;;;;2.50;1.50;;;;;;;10.59;58.24;98770.50;5059352;28;20041;-62
2023/04/13 07:32:05;;;;;;;3.15;1.48;;;;;;;10.76;57.54;98784.88;5061993;28;20487;-62
2023/04/13 07:34:32;;;;;;;2.17;1.20;;;;;;;10.67;56.75;98775.09;5056968;28;20056;-62
2023/04/13 07:36:59;;;;;;;3.70;1.75;;;;;;;10.67;57.57;98791.78;5059220;28;20055;-62
2023/04/13 07:39:27;;;;;;;2.40;1.20;;;;;;;10.44;56.96;98786.78;5052138;28;20056;-61
2023/04/13 07:41:55;;;;;;;3.70;1.50;;;;;;;10.58;57.72;98794.72;5059367;28;20057;-62
2023/04/13 07:44:24;;;;;;;2.60;1.40;;;;;;;10.66;56.78;98807.66;5056222;28;20045;-62
2023/04/13 07:46:51;;;;;;;1.95;1.40;;;;;;;10.91;56.68;98794.41;5058619;28;20053;-62
2023/04/13 07:49:18;;;;;;;2.22;1.35;;;;;;;11.28;56.30;98787.78;5053881;28;20052;-62
2023/04/13 07:51:45;;;;;;;1.95;1.38;;;;;;;12.51;52.78;98795.72;5051042;28;20495;-62
2023/04/13 07:54:13;;;;;;;2.72;1.40;;;;;;;14.05;49.00;98794.72;5059683;28;20059;-62
2023/04/13 07:56:40;;;;;;;4.03;1.50;;;;;;;15.15;46.30;98796.41;5054059;28;20053;-63
2023/04/13 07:59:07;;;;;;;2.67;1.60;;;;;;;16.31;44.46;98788.41;5059422;28;20045;-62
2023/04/13 08:01:36;;;;;;;2.90;1.45;;;;;;;16.74;43.41;98785.75;5058274;28;20051;-63
2023/04/13 08:04:03;;;;;;;3.25;1.60;;;;;;;17.83;40.61;98802.38;5051178;28;20498;-63
2023/04/13 08:06:30;;;;;;;2.70;1.30;;;;;;;18.68;38.83;98794.03;5056580;28;20120;-63
2023/04/13 08:08:57;;;;;;;3.22;1.83;;;;;;;18.39;38.33;98801.81;5056146;28;20068;-63
2023/04/13 08:11:25;;;;;;;3.13;1.42;;;;;;;17.45;39.76;98801.97;5059801;28;20463;-63
2023/04/13 08:13:52;;;;;;;2.72;1.15;;;;;;;17.96;39.02;98805.56;5051766;28;20067;-63
2023/04/13 08:16:20;;;;;;;2.15;0.98;;;;;;;16.77;39.28;98812.28;5055692;28;20410;-63
2023/04/13 08:18:48;;;;;;;2.63;1.80;;;;;;;16.79;40.15;98812.69;5051803;28;20056;-62
2023/04/13 08:21:17;;;;;;;2.90;1.00;;;;;;;17.46;38.18;98802.78;5060158;28;20560;-63
2023/04/13 08:23:45;;;;;;;3.47;1.25;;;;;;;17.40;38.22;98812.81;5052945;28;20053;-62
2023/04/13 08:26:17;;;;;;;3.85;1.30;;;;;;;18.14;36.84;98808.38;5057968;28;20503;-62
2023/04/13 08:28:44;;;;;;;1.70;0.90;;;;;;;18.28;37.36;98813.13;5062261;28;20056;-62
2023/04/13 08:31:12;;;;;;;2.65;1.00;;;;;;;18.20;37.15;98811.53;5065939;28;20045;-62
2023/04/13 08:33:39;;;;;;;3.55;1.17;;;;;;;17.27;38.10;98829.28;5058576;28;20049;-62
2023/04/13 08:36:08;;;;;;;2.47;0.88;;;;;;;16.16;40.59;98824.06;5056811;28;20084;-62
2023/04/13 08:38:35;;;;;;;1.83;0.82;;;;;;;15.32;41.26;98828.63;5060077;28;20056;-62
2023/04/13 08:41:03;;;;;;;2.20;0.80;;;;;;;14.86;43.61;98826.16;5054054;28;20055;-62
2023/04/13 08:43:35;;;;;;;3.97;1.00;;;;;;;14.34;44.16;98848.31;5053207;28;20048;-62
2023/04/13 08:46:03;;;;;;;3.28;1.23;;;;;;;14.19;45.25;98861.31;5056031;28;20056;-62
2023/04/13 08:48:32;;;;;;;1.92;1.05;;;;;;;14.30;44.35;98853.88;5057100;28;20064;-62
2023/04/13 08:51:01;;;;;;;2.42;0.88;;;;;;;14.36;44.80;98835.56;5051635;28;20055;-63
2023/04/13 08:53:30;;;;;;;2.40;1.30;;;;;;;14.17;45.48;98852.47;5055981;28;20053;-62
2023/04/13 08:55:59;;;;;;;3.13;1.23;;;;;;;13.63;46.66;98854.47;5052121;28;20076;-63
2023/04/13 08:58:29;;;;;;;2.13;1.00;;;;;;;13.29;46.97;98856.28;5059430;28;20049;-62
2023/04/13 09:00:57;;;;;;;2.00;1.17;;;;;;;13.45;47.61;98864.56;5054447;28;20422;-62
2023/04/13 09:03:26;;;;;;;2.67;1.13;;;;;;;13.14;48.17;98866.34;5059439;28;20081;-62
2023/04/13 09:05:59;;;;;;;3.10;0.98;;;;;;;13.14;48.24;98878.34;5056345;28;20049;-62
2023/04/13 09:08:26;;;;;;;2.33;1.20;;;;;;;13.34;48.08;98869.97;5057285;28;20041;-61
2023/04/13 09:10:57;;;;;;;2.95;1.98;;;;;;;13.36;47.69;98868.41;5052227;28;20049;-62
2023/04/13 09:13:24;;;;;;;2.55;1.48;;;;;;;13.39;47.89;98873.22;5054611;28;20053;-62
2023/04/13 09:15:52;;;;;;;2.58;1.20;;;;;;;13.78;48.54;98895.47;5054841;28;20422;-62
2023/04/13 09:18:19;;;;;;;3.00;1.50;;;;;;;14.31;46.33;98882.69;5057796;28;20061;-62
2023/04/13 09:20:55;;;;;;;2.45;1.02;;;;;;;14.09;46.10;98873.97;5055147;28;20486;-62
2023/04/13 09:23:22;;;;;;;3.35;1.10;;;;;;;13.84;47.38;98884.78;5053293;28;20048;-62
2023/04/13 09:25:50;;;;;;;2.10;1.35;;;;;;;14.09;46.82;98882.38;5055252;28;20198;-61
2023/04/13 09:28:20;;;;;;;3.20;1.50;;;;;;;14.33;46.78;98899.91;5056880;28;20056;-61
2023/04/13 09:30:47;;;;;;;2.67;1.17;;;;;;;14.40;46.81;98900.00;5062300;28;20057;-61
2023/04/13 09:33:16;;;;;;;4.05;1.40;;;;;;;14.28;47.42;98894.63;5052144;28;20049;-61
2023/04/13 09:35:44;;;;;;;3.22;1.65;;;;;;;14.17;46.48;98900.91;5049490;28;20064;-61
2023/04/13 09:38:14;;;;;;;2.88;1.60;;;;;;;14.37;46.00;98904.38;5052832;28;20053;-61
2023/04/13 09:40:48;;;;;;;4.07;1.38;;;;;;;14.08;45.84;98905.94;5054275;28;20663;-62
2023/04/13 09:43:15;;;;;;;2.55;1.17;;;;;;;14.18;46.21;98916.50;5057221;28;21790;-61
2023/04/13 09:45:44;;;;;;;3.42;1.50;;;;;;;13.91;45.95;98917.69;5057898;28;20044;-61
2023/04/13 09:48:20;;;;;;;3.50;1.35;;;;;;;13.77;46.58;98924.66;5056569;28;20059;-61
2023/04/13 09:50:58;;;;;;;3.97;1.40;;;;;;;13.92;46.23;98936.06;5066035;28;20363;-62
2023/04/13 09:53:26;;;;;;;3.67;1.40;;;;;;;13.91;47.98;98935.28;5059860;28;20403;-61
2023/04/13 09:55:57;;;;;;;3.45;1.40;;;;;;;13.47;47.68;98937.72;5059823;28;20056;-62
2023/04/13 09:58:25;;;;;;;2.72;1.20;;;;;;;13.14;49.24;98942.63;5053787;28;20068;-62
2023/04/13 10:00:54;;;;;;;3.80;1.23;;;;;;;13.85;48.76;98945.16;5056831;28;20491;-62
2023/04/13 10:03:22;;;;;;;4.57;1.42;;;;;;;14.65;48.16;98942.41;5056013;28;20766;-62
2023/04/13 10:05:50;;;;;;;5.13;1.30;;;;;;;15.36;46.00;98942.47;5060442;28;20053;-62
2023/04/13 10:08:17;;;;;;;4.32;1.52;;;;;;;14.73;46.09;98941.31;5059992;28;20416;-62
2023/04/13 10:10:45;;;;;;;3.03;1.40;;;;;;;15.28;44.24;98949.19;5065990;28;20045;-62
2023/04/13 10:13:17;;;;;;;2.83;1.25;;;;;;;15.22;43.70;98939.50;5064246;28;20052;-62
2023/04/13 10:16:09;;;;;;;3.13;1.20;;;;;;;15.21;45.34;98957.53;5067109;28;20510;-62
2023/04/13 10:18:48;;;;;;;3.17;1.00;;;;;;;14.75;44.71;98966.97;5074388;28;20052;-62
2023/04/13 10:21:16;;;;;;;3.85;1.60;;;;;;;16.37;42.76;98954.63;5075076;28;20479;-62
2023/04/13 10:23:44;;;;;;;2.30;1.25;;;;;;;18.35;39.47;98948.44;5062500;28;20414;-62
2023/04/13 10:26:11;;;;;;;2.72;1.40;;;;;;;21.63;34.33;98948.41;5061447;28;20056;-62
2023/04/13 10:28:42;;;;;;;2.50;1.30;;;;;;;23.18;31.29;98937.22;5064409;28;20053;-62
2023/04/13 10:31:11;;;;;;;2.80;1.30;;;;;;;22.24;32.03;98944.66;5064011;28;20052;-62
2023/04/13 10:33:48;;;;;;;4.07;1.85;;;;;;;20.61;34.48;98950.03;5058266;28;20045;-63
2023/04/13 10:36:15;;;;;;;3.67;1.40;;;;;;;19.84;36.19;98945.44;5066582;28;20068;-62
2023/04/13 10:38:43;;;;;;;5.18;1.58;;;;;;;19.12;36.92;98947.84;5073327;28;20517;-63
2023/04/13 10:41:11;;;;;;;3.90;1.42;;;;;;;18.19;38.86;98951.66;5058963;28;20060;-62
2023/04/13 10:43:38;;;;;;;5.38;1.67;;;;;;;18.00;39.21;98955.69;5054661;28;20067;-62
2023/04/13 10:46:07;;;;;;;3.28;1.50;;;;;;;17.10;40.39;98954.66;5061257;28;20055;-62
2023/04/13 10:48:36;;;;;;;3.63;1.55;;;;;;;16.22;42.17;98954.53;5066521;28;20131;-62
2023/04/13 10:51:04;;;;;;;4.18;1.65;;;;;;;15.72;42.42;98973.75;5074217;28;20045;-62
2023/04/13 10:53:32;;;;;;;3.85;1.63;;;;;;;15.51;42.88;98967.88;5060887;28;20052;-62
2023/04/13 10:56:01;;;;;;;7.17;2.10;;;;;;;15.06;43.51;98978.19;5063570;28;20052;-62
2023/04/13 10:58:30;;;;;;;6.55;2.17;;;;;;;14.80;43.67;98993.84;5062030;28;20486;-62
2023/04/13 11:00:58;;;;;;;4.38;2.03;;;;;;;14.56;44.62;98997.94;5058056;28;20074;-62
2023/04/13 11:03:27;;;;;;;6.47;1.70;;;;;;;15.09;45.17;98995.06;5073063;28;20048;-61
2023/04/13 11:06:00;;;;;;;6.50;2.05;;;;;;;15.63;43.97;98987.25;5067033;28;20061;-62
2023/04/13 11:08:28;;;;;;;5.07;1.63;;;;;;;16.37;41.70;98993.97;5055372;28;20526;-62
2023/04/13 11:10:56;;;;;;;5.30;2.08;;;;;;;16.86;40.76;98994.72;5058384;28;20049;-62
2023/04/13 11:13:25;;;;;;;4.97;1.80;;;;;;;16.75;40.66;98991.81;5069878;28;20506;-61
2023/04/13 11:16:01;;;;;;;6.57;1.88;;;;;;;16.41;41.67;98997.63;5068029;28;20044;-62
2023/04/13 11:18:28;;;;;;;8.48;2.25;;;;;;;15.92;42.75;99007.25;5069841;28;20060;-62
2023/04/13 11:20:56;;;;;;;5.57;2.13;;;;;;;15.77;42.24;98993.06;5057996;28;20060;-62
2023/04/13 11:23:25;;;;;;;7.28;2.05;;;;;;;15.71;42.28;98990.97;5071652;28;20475;-62
2023/04/13 11:25:53;;;;;;;3.97;1.73;;;;;;;16.10;41.83;98988.53;5068654;28;20049;-62
2023/04/13 11:28:22;;;;;;;4.13;1.80;;;;;;;16.57;40.78;99000.16;5060683;28;20060;-62
2023/04/13 11:30:54;;;;;;;7.43;2.08;;;;;;;17.47;39.55;98997.78;5059078;28;20053;-62
2023/04/13 11:33:26;;;;;;;7.00;2.20;;;;;;;20.38;33.88;99000.75;5060388;28;20064;-62
2023/04/13 11:35:54;;;;;;;6.10;2.22;;;;;;;21.33;32.38;98971.84;5065569;28;20052;-62
2023/04/13 11:38:22;;;;;;;5.80;2.03;;;;;;;19.00;34.71;99002.72;5062939;28;20052;-62
2023/04/13 11:40:51;;;;;;;4.20;2.10;;;;;;;18.58;36.08;99007.22;5061632;28;20045;-62
2023/04/13 11:43:19;;;;;;;;;;;;;;;18.59;36.99;99008.81;5053692;28;20056;-62
2023/04/13 11:45:46;;;;;;;6.10;2.08;;;;;;;19.44;35.89;99012.66;5053399;28;19921;-62